Latest Coastal Weather Observations for Portland Airport

IDV60701

Issued at 2:42 am EDT Tuesday 21 February 2017 (issued every 10 minutes, with the page automatically refreshed every 10 minutes)

About coastal observations | Map of coastal stations | Coastal observations for VIC | Marine services | Other Formats
Station Details ID: 090171 Name: CASHMORE AIRPORT Lat: -38.31 Lon: 141.47 Height: 80.9 m
Data from the previous 72 hours. | See also: Recent months at Portland Airport
Date/Time
EDT
Temp
°C
Wind Pressure Rain since
9am
mm
Weather Cloud Vis
km
Sea
Height
m
Swell
Dir  Spd
kts
Gust
kts
hPa Trend Height
m
Period
s
Dir
21/02:30am 6.4 CALM 0 0 1019.1 - 0.0 - Partly cloudy 10 - - - -
21/02:00am 6.4 CALM 0 0 1019.3 - 0.0 - Partly cloudy 10 - - - -
21/01:30am 7.2 CALM 0 0 1019.4 - 0.0 - - 10 - - - -
21/01:00am 7.6 CALM 0 0 1019.4 - 0.0 - - 10 - - - -
21/12:30am 7.7 CALM 0 0 1019.7 - 0.0 - Partly cloudy 10 - - - -
21/12:00am 7.6 WSW 1 3 1019.6 - 0.0 - - 10 - - - -
 
Date/Time
EDT
Temp
°C
Wind Pressure Rain since
9am
mm
Weather Cloud Vis
km
Sea
Height
m
Swell
Dir  Spd
kts
Gust
kts
hPa Trend Height
m
Period
s
Dir
20/11:30pm 8.0 CALM 0 0 1019.8 - 0.0 - Partly cloudy 10 - - - -
20/11:00pm 8.2 CALM 0 0 1019.6 - 0.0 - Partly cloudy 10 - - - -
20/10:30pm 8.7 CALM 0 0 1019.4 - 0.0 - - 10 - - - -
20/10:00pm 9.3 WSW 3 4 1019.4 - 0.0 - - 10 - - - -
20/09:30pm 10.4 CALM 0 2 1019.3 - 0.0 - - 10 - - - -
20/09:00pm 11.6 WSW 3 3 1019.1 - 0.0 - - 10 - - - -
20/08:30pm 13.1 WSW 3 5 1018.8 - 0.0 - - 10 - - - -
20/08:00pm 14.2 SW 5 7 1018.4 - 0.0 - Partly cloudy 10 - - - -
20/07:30pm 15.0 SSW 6 9 1018.1 - 0.0 - Partly cloudy 10 - - - -
20/07:00pm 15.3 SSW 7 11 1017.6 - 0.0 - Cloudy 10 - - - -
20/06:30pm 15.3 SW 7 11 1017.4 - 0.0 - Partly cloudy 10 - - - -
20/06:00pm 15.7 SW 9 13 1017.3 - 0.0 - Cloudy 10 - - - -
20/05:30pm 16.2 SW 9 14 1017.1 - 0.0 - Partly cloudy 10 - - - -
20/05:00pm 16.5 SSW 9 15 1016.9 - 0.0 - Partly cloudy 10 - - - -
20/04:30pm 15.9 SSW 11 16 1016.7 - 0.0 - Partly cloudy 10 - - - -
20/04:00pm 17.5 SW 12 16 1016.8 - 0.0 - Partly cloudy 10 - - - -
20/03:30pm 16.5 SSW 11 18 1016.7 - 0.0 - Partly cloudy 10 - - - -
20/03:00pm 16.8 SW 11 16 1016.7 - 0.0 - Cloudy 10 - - - -
20/02:30pm 17.1 SW 12 19 1016.7 - 0.0 - Partly cloudy 10 - - - -
20/02:00pm 16.4 SW 11 18 1016.8 - 0.0 - Partly cloudy 10 - - - -
20/01:30pm 17.5 WSW 11 15 1016.6 - 0.0 - Partly cloudy 10 - - - -
20/01:00pm 16.3 SW 12 18 1016.7 - 0.0 - Partly cloudy 10 - - - -
20/12:30pm 16.8 SW 11 17 1016.8 - 0.0 - Partly cloudy 10 - - - -
20/12:00pm 16.2 SSW 10 16 1016.8 - 0.0 - Cloudy 10 - - - -
20/11:30am 15.1 SW 11 14 1016.8 - 0.0 - Partly cloudy 10 - - - -
20/11:00am 15.0 SW 9 13 1016.7 - 0.0 - Partly cloudy 10 - - - -
20/10:30am 13.7 S 6 10 1016.6 - 0.0 - Partly cloudy 10 - - - -
20/10:00am 13.9 SSW 11 20 1016.4 - 0.0 - Partly cloudy 10 - - - -
20/09:30am 14.4 SW 8 12 1016.0 - 0.0 - Cloudy 10 - - - -
20/09:00am 13.1 SW 8 12 1015.8 - 2.0 - Mostly cloudy 10 - - - -
20/08:30am 14.3 SW 8 14 1015.5 - 2.0 - Partly cloudy 10 - - - -
20/08:00am 13.7 SW 8 12 1014.9 - 2.0 - Partly cloudy 10 - - - -
20/07:30am 13.5 SW 9 15 1014.6 - 2.0 - Cloudy 10 - - - -
20/07:00am 13.6 SW 9 14 1014.2 - 2.0 - Partly cloudy 10 - - - -
20/06:30am 13.5 SW 9 13 1014.0 - 2.0 - Partly cloudy 10 - - - -
20/06:00am 13.4 SW 8 14 1013.7 - 2.0 - Mostly cloudy 10 - - - -
20/05:30am 13.4 SW 9 13 1013.7 - 2.0 - Partly cloudy 10 - - - -
20/05:00am 13.1 SW 9 13 1013.5 - 2.0 - Partly cloudy 10 - - - -
20/04:30am 13.5 SSW 9 16 1013.5 - 2.0 - Partly cloudy 10 - - - -
20/04:00am 13.5 SSW 10 17 1013.4 - 2.0 - Partly cloudy 10 - - - -
20/03:30am 13.3 SSW 9 14 1013.4 - 2.0 - Partly cloudy 10 - - - -
20/03:00am 13.3 SSW 9 16 1013.4 - 2.0 - Mostly cloudy 10 - - - -
20/02:30am 12.8 SW 7 11 1013.4 - 2.0 - Partly cloudy 10 - - - -
20/02:00am 13.1 SSW 11 16 1013.5 - 2.0 - Partly cloudy 10 - - - -
20/01:30am 12.6 SW 8 13 1013.6 - 2.0 - Partly cloudy 10 - - - -
20/01:00am 12.0 SW 7 13 1013.5 - 2.0 - Partly cloudy 10 - - - -
20/12:30am 11.7 SW 5 8 1013.6 - 2.0 - Partly cloudy 10 - - - -
20/12:00am 12.3 SSW 8 14 1013.8 - 1.6 - Mostly cloudy 10 - - - -
 
Date/Time
EDT
Temp
°C
Wind Pressure Rain since
9am
mm
Weather Cloud Vis
km
Sea
Height
m
Swell
Dir  Spd
kts
Gust
kts
hPa Trend Height
m
Period
s
Dir
19/11:30pm 12.7 SW 11 20 1013.6 - 1.6 - Partly cloudy 10 - - - -
19/11:00pm 13.2 SW 12 19 1013.6 - 1.6 - Partly cloudy 10 - - - -
19/10:30pm 13.0 SW 12 19 1013.6 - 1.6 - Partly cloudy 10 - - - -
19/10:00pm 12.1 SW 10 16 1013.5 - 1.6 - Partly cloudy 10 - - - -
19/09:30pm 13.0 SW 12 19 1013.3 - 1.6 - Partly cloudy 10 - - - -
19/09:00pm 13.0 SW 10 16 1012.9 - 1.6 - Cloudy 10 - - - -
19/08:30pm 12.9 SW 14 20 1012.7 - 1.6 - Partly cloudy 10 - - - -
19/08:00pm 13.1 SW 12 19 1012.3 - 1.6 - Partly cloudy 10 - - - -
19/07:30pm 13.7 SW 11 18 1012.0 - 1.6 - Partly cloudy 10 - - - -
19/07:00pm 13.3 SW 14 21 1011.8 - 1.6 - Partly cloudy 10 - - - -
19/06:30pm 13.1 SW 13 20 1011.7 - 1.6 - Partly cloudy 10 - - - -
19/06:00pm 12.9 SW 13 20 1011.6 - 1.2 - Cloudy 10 - - - -
19/05:30pm 14.4 SSW 14 23 1011.3 - 1.2 - Partly cloudy 10 - - - -
19/05:00pm 14.8 SW 14 23 1011.2 - 1.2 - Partly cloudy 10 - - - -
19/04:30pm 16.2 SW 12 18 1010.9 - 1.2 - Partly cloudy 10 - - - -
19/04:00pm 15.5 WSW 15 22 1011.0 - 1.2 - Partly cloudy 10 - - - -
19/03:30pm 15.0 SW 18 29 1011.1 - 1.2 - Partly cloudy 10 - - - -
19/03:17pm 15.2 SW 15 25 1011.1 - 1.2 - Partly cloudy 10 - - - -
19/03:00pm 14.9 SW 17 24 1011.2 - 1.2 - Cloudy 10 - - - -
19/02:49pm 15.6 SSW 15 27 1011.1 - 1.2 - Partly cloudy 10 - - - -
19/02:30pm 14.4 SW 16 24 1011.1 - 1.2 - Partly cloudy 10 - - - -
19/02:00pm 15.9 SW 15 25 1011.2 - 1.2 - Partly cloudy 10 - - - -
19/01:30pm 15.2 SW 16 26 1011.2 - 1.2 - Partly cloudy 10 - - - -
19/01:00pm 15.7 SW 15 26 1011.3 - 1.2 - Partly cloudy 10 - - - -
19/12:31pm 15.5 SW 15 25 1011.4 - 1.2 - Partly cloudy 10 - - - -
19/12:30pm 15.5 SW 15 21 1011.4 - 1.2 - Partly cloudy 10 - - - -
19/12:00pm 14.8 SW 13 20 1011.7 - 1.2 - Cloudy 10 - - - -
19/11:30am 14.1 SSW 14 22 1011.7 - 1.2 - Partly cloudy 10 - - - -
19/11:02am 13.8 SW 15 25 1011.6 - 1.2 - Partly cloudy 10 - - - -
19/11:00am 14.5 SW 16 24 1011.5 - 1.2 - Partly cloudy 10 - - - -
19/10:30am 13.1 SW 12 17 1011.5 - 1.2 - Partly cloudy 10 - - - -
19/10:00am 11.5 WSW 11 16 1011.4 - 1.2 - Partly cloudy 10 - - - -
19/09:46am 11.2 SW 11 15 1011.7 - 1.0 - Partly cloudy 6 - - - -
19/09:30am 11.0 SW 11 18 1011.3 - 0.4 - Partly cloudy 10 - - - -
19/09:00am 12.3 SSW 12 17 1010.8 - 6.6 - Cloudy 10 - - - -
19/08:30am 11.0 SW 11 18 1010.6 - 6.6 - Partly cloudy 10 - - - -
19/08:00am 11.1 SW 8 12 1010.5 - 6.6 - Partly cloudy 10 - - - -
19/07:41am 10.8 SW 10 14 1010.5 - 6.6 - Partly cloudy 10 - - - -
19/07:30am 11.0 SW 13 19 1010.6 - 6.6 - Partly cloudy 6 - - - -
19/07:24am 11.1 SW 13 19 1010.6 - 6.2 - Partly cloudy 6 - - - -
19/07:00am 11.0 SW 12 20 1010.1 - 5.4 - Partly cloudy 10 - - - -
19/06:36am 11.4 WSW 12 16 1009.9 - 5.2 - Partly cloudy 10 - - - -
19/06:30am 11.3 WSW 12 19 1009.9 - 5.0 - Partly cloudy 10 - - - -
19/06:17am 11.6 WSW 13 23 1009.9 - 4.6 - Partly cloudy 5 - - - -
19/06:03am 11.3 SW 11 20 1010.0 - 3.6 - Partly cloudy 10 - - - -
19/06:00am 11.3 SW 10 15 1010.0 - 3.4 Recent precip. Cloudy 10 - - - -
19/05:44am 11.6 WSW 16 25 1010.0 - 3.0 - Partly cloudy 6 - - - -
19/05:40am 11.9 WSW 15 25 1010.0 - 2.4 - Partly cloudy 10 - - - -
19/05:30am 11.9 SW 12 17 1009.8 - 2.2 - Partly cloudy 10 - - - -
19/05:00am 13.3 WSW 16 23 1009.8 - 1.8 - Partly cloudy 10 - - - -
19/04:40am 13.2 WSW 18 28 1010.0 - 1.8 - Partly cloudy 10 - - - -
19/04:30am 13.2 WSW 17 26 1009.9 - 1.8 - Partly cloudy 10 - - - -
19/04:14am 13.1 WSW 15 25 1010.1 - 1.8 - Partly cloudy 10 - - - -
19/04:00am 13.1 WSW 15 21 1010.2 - 1.8 - Partly cloudy 10 - - - -
19/03:30am 12.8 WSW 15 21 1010.5 - 1.8 - Partly cloudy 10 - - - -
19/03:00am 12.2 WSW 14 20 1010.9 - 1.6 - Cloudy 10 - - - -
19/02:55am 12.3 WSW 15 25 1010.9 - 1.6 - Partly cloudy 10 - - - -
19/02:46am 12.1 WSW 18 25 1011.1 - 1.6 - Partly cloudy 10 - - - -
19/02:30am 11.8 W 10 14 1011.3 - 1.6 - Partly cloudy 10 - - - -
19/02:00am 12.0 WSW 13 21 1011.4 - 1.6 - Partly cloudy 10 - - - -
19/01:37am 11.7 WSW 14 20 1011.8 - 1.6 - Partly cloudy 10 - - - -
19/01:30am 11.9 WSW 15 21 1011.9 - 1.6 - Partly cloudy 10 - - - -
19/01:23am 12.1 WSW 17 25 1012.0 - 1.4 - Partly cloudy 6 - - - -
19/01:00am 13.0 WSW 17 27 1012.1 - 1.0 - Partly cloudy 10 - - - -
19/12:52am 13.6 WSW 17 27 1012.0 - 1.0 - Partly cloudy 10 - - - -
19/12:30am 13.3 WSW 14 21 1012.2 - 1.0 - Partly cloudy 10 - - - -
19/12:00am 12.5 WSW 11 16 1012.4 - 1.0 - Cloudy 10 - - - -
 
Date/Time
EDT
Temp
°C
Wind Pressure Rain since
9am
mm
Weather Cloud Vis
km
Sea
Height
m
Swell
Dir  Spd
kts
Gust
kts
hPa Trend Height
m
Period
s
Dir
18/11:30pm 12.8 WSW 12 18 1012.5 - 1.0 - Partly cloudy 10 - - - -
18/11:00pm 12.0 W 9 12 1012.9 - 1.0 - Partly cloudy 10 - - - -
18/10:30pm 12.2 WSW 11 17 1013.1 - 1.0 - Partly cloudy 10 - - - -
18/10:00pm 12.9 WSW 14 20 1013.1 - 1.0 - Partly cloudy 10 - - - -
18/09:30pm 12.5 W 13 17 1013.0 - 1.0 - Partly cloudy 10 - - - -
18/09:00pm 12.4 W 11 17 1012.9 - 1.0 Recent precip. Cloudy 10 - - - -
18/08:30pm 11.1 WSW 7 11 1012.8 - 1.0 - Partly cloudy 10 - - - -
18/08:00pm 12.6 SW 9 14 1012.7 - 0.6 - Partly cloudy 10 - - - -
18/07:30pm 13.6 WSW 13 19 1012.5 - 0.6 - Partly cloudy 10 - - - -
18/07:00pm 14.8 W 13 16 1012.5 - 0.6 - Partly cloudy 10 - - - -
18/06:30pm 14.6 WSW 14 21 1012.4 - 0.6 - Partly cloudy 10 - - - -
18/06:00pm 15.8 W 15 20 1012.4 - 0.6 - Cloudy 10 - - - -
18/05:30pm 14.6 WSW 14 18 1012.3 - 0.6 - Partly cloudy 10 - - - -
18/05:00pm 16.2 W 11 15 1012.4 - 0.6 - Partly cloudy 10 - - - -
18/04:30pm 15.2 WSW 15 21 1012.5 - 0.6 - Partly cloudy 10 - - - -
18/04:11pm 16.0 WSW 15 26 1012.5 - 0.6 - Partly cloudy 10 - - - -
18/04:00pm 16.0 WSW 15 20 1012.6 - 0.6 - Partly cloudy 10 - - - -
18/03:30pm 14.7 WSW 16 21 1012.8 - 0.6 - Partly cloudy 10 - - - -
18/03:00pm 13.9 WSW 14 20 1012.8 - 0.6 - Partly cloudy 10 - - - -
18/02:30pm 16.5 W 14 21 1012.7 - 0.6 - Partly cloudy 10 - - - -
18/02:00pm 15.9 WSW 14 19 1012.4 - 0.6 - Partly cloudy 10 - - - -
18/01:30pm 15.2 W 15 22 1012.4 - 0.6 - Partly cloudy 10 - - - -
18/01:00pm 16.4 W 15 22 1012.5 - 0.6 - Partly cloudy 10 - - - -
18/12:30pm 16.5 WSW 13 18 1012.4 - 0.6 - Partly cloudy 10 - - - -
18/12:00pm 15.8 WSW 14 18 1012.5 - 0.6 - - 10 - - - -
18/11:30am 15.0 WSW 13 19 1012.6 - 0.6 - Partly cloudy 10 - - - -
18/11:00am 13.1 SW 9 13 1012.7 - 0.6 - Partly cloudy 10 - - - -
18/10:30am 12.2 W 15 26 1012.6 - 0.6 - Partly cloudy 10 - - - -
18/10:28am 13.1 W 15 26 1012.5 - 0.4 - Partly cloudy 10 - - - -
18/10:00am 13.9 WSW 10 16 1012.1 - 0.0 - Partly cloudy 10 - - - -
18/09:30am 14.9 WSW 11 17 1011.8 - 0.0 - Partly cloudy 10 - - - -
18/09:00am 13.7 WSW 10 16 1011.5 - 4.6 - Mostly clear 10 - - - -
18/08:30am 13.1 WSW 11 15 1011.3 - 4.6 - Partly cloudy 10 - - - -
18/08:00am 12.5 WSW 9 15 1011.1 - 4.6 - Partly cloudy 10 - - - -
18/07:30am 11.7 SW 7 11 1010.8 - 4.6 - Partly cloudy 10 - - - -
18/07:00am 12.3 WSW 12 17 1010.5 - 4.6 - Partly cloudy 10 - - - -
18/06:30am 12.1 WSW 9 12 1010.3 - 4.6 - Partly cloudy 10 - - - -
18/06:00am 11.7 WSW 9 13 1010.2 - 4.6 - Partly cloudy 10 - - - -
18/05:30am 11.8 WSW 11 16 1010.1 - 4.6 - Partly cloudy 10 - - - -
18/05:00am 12.2 WSW 13 17 1009.9 - 4.6 - Partly cloudy 10 - - - -
18/04:30am 11.8 SW 5 10 1010.1 - 4.6 - Partly cloudy 10 - - - -
18/04:00am 10.9 WSW 6 11 1010.1 - 4.6 - Partly cloudy 10 - - - -
18/03:30am 10.6 WSW 8 11 1010.3 - 4.6 - Partly cloudy 10 - - - -
18/03:00am 11.0 WSW 13 17 1010.4 - 4.6 Recent precip. Mostly cloudy 10 - - - -

Other Formats:

Comma delimited format used in spreadsheet applications
http://www.bom.gov.au/fwo/IDV60701/IDV60701.94828.axf

JavaScript Object Notation format (JSON) in row-major order
http://www.bom.gov.au/fwo/IDV60701/IDV60701.94828.json